sensor_id;sensor_type;location;lat;lon;timestamp;P1;durP1;ratioP1;P2;durP2;ratioP2
45382;SDS011;42455;51.660;5.824;2023-02-08T00:02:50;13.0;;;11.0;;
45382;SDS011;42455;51.660;5.824;2023-02-08T00:07:56;14.5;;;12.0;;
45382;SDS011;42455;51.660;5.824;2023-02-08T00:13:02;13.0;;;12.0;;
45382;SDS011;42455;51.660;5.824;2023-02-08T00:18:08;16.0;;;12.0;;
45382;SDS011;42455;51.660;5.824;2023-02-08T00:23:14;14.0;;;13.0;;
45382;SDS011;42455;51.660;5.824;2023-02-08T00:28:20;14.0;;;12.0;;
45382;SDS011;42455;51.660;5.824;2023-02-08T00:33:26;15.0;;;12.0;;
45382;SDS011;42455;51.660;5.824;2023-02-08T00:38:33;14.0;;;12.0;;
45382;SDS011;42455;51.660;5.824;2023-02-08T00:43:39;14.0;;;12.0;;
45382;SDS011;42455;51.660;5.824;2023-02-08T00:48:45;14.0;;;12.0;;
45382;SDS011;42455;51.660;5.824;2023-02-08T00:53:51;14.0;;;12.0;;
45382;SDS011;42455;51.660;5.824;2023-02-08T00:58:57;15.0;;;12.0;;
45382;SDS011;42455;51.660;5.824;2023-02-08T01:04:04;14.5;;;12.0;;
45382;SDS011;42455;51.660;5.824;2023-02-08T01:09:10;15.0;;;12.0;;
45382;SDS011;42455;51.660;5.824;2023-02-08T01:14:15;14.0;;;12.0;;
45382;SDS011;42455;51.660;5.824;2023-02-08T01:19:21;14.0;;;12.0;;
45382;SDS011;42455;51.660;5.824;2023-02-08T01:24:27;15.0;;;13.0;;
45382;SDS011;42455;51.660;5.824;2023-02-08T01:29:34;15.0;;;13.0;;
45382;SDS011;42455;51.660;5.824;2023-02-08T01:34:40;15.0;;;13.0;;
45382;SDS011;42455;51.660;5.824;2023-02-08T01:39:46;14.5;;;13.0;;
45382;SDS011;42455;51.660;5.824;2023-02-08T01:45:31;16.0;;;13.0;;
45382;SDS011;42455;51.660;5.824;2023-02-08T01:49:58;15.0;;;13.0;;
45382;SDS011;42455;51.660;5.824;2023-02-08T01:55:05;16.0;;;13.0;;
45382;SDS011;42455;51.660;5.824;2023-02-08T02:00:11;15.0;;;12.0;;
45382;SDS011;42455;51.660;5.824;2023-02-08T02:05:16;15.0;;;12.0;;
45382;SDS011;42455;51.660;5.824;2023-02-08T02:10:25;14.0;;;12.0;;
45382;SDS011;42455;51.660;5.824;2023-02-08T02:15:29;14.0;;;12.5;;
45382;SDS011;42455;51.660;5.824;2023-02-08T02:21:05;14.0;;;12.0;;
45382;SDS011;42455;51.660;5.824;2023-02-08T02:28:26;14.0;;;12.0;;
45382;SDS011;42455;51.660;5.824;2023-02-08T02:34:39;14.0;;;12.0;;
45382;SDS011;42455;51.660;5.824;2023-02-08T02:40:35;15.0;;;11.5;;
45382;SDS011;42455;51.660;5.824;2023-02-08T02:46:05;13.0;;;12.0;;
45382;SDS011;42455;51.660;5.824;2023-02-08T02:50:23;13.5;;;12.0;;
45382;SDS011;42455;51.660;5.824;2023-02-08T02:54:18;13.0;;;12.0;;
45382;SDS011;42455;51.660;5.824;2023-02-08T02:57:30;14.0;;;12.0;;
45382;SDS011;42455;51.660;5.824;2023-02-08T03:01:24;15.0;;;12.0;;
45382;SDS011;42455;51.660;5.824;2023-02-08T03:06:34;14.0;;;12.0;;
45382;SDS011;42455;51.660;5.824;2023-02-08T03:12:07;14.0;;;11.0;;
45382;SDS011;42455;51.660;5.824;2023-02-08T03:17:36;14.0;;;12.0;;
45382;SDS011;42455;51.660;5.824;2023-02-08T03:22:16;15.0;;;12.0;;
45382;SDS011;42455;51.660;5.824;2023-02-08T03:27:02;16.0;;;12.0;;
45382;SDS011;42455;51.660;5.824;2023-02-08T03:32:03;14.5;;;12.0;;
45382;SDS011;42455;51.660;5.824;2023-02-08T03:37:09;16.0;;;12.0;;
45382;SDS011;42455;51.660;5.824;2023-02-08T03:42:13;14.0;;;11.0;;
45382;SDS011;42455;51.660;5.824;2023-02-08T03:47:24;14.0;;;12.0;;
45382;SDS011;42455;51.660;5.824;2023-02-08T03:52:26;13.0;;;11.0;;
45382;SDS011;42455;51.660;5.824;2023-02-08T03:57:33;13.0;;;11.0;;
45382;SDS011;42455;51.660;5.824;2023-02-08T04:02:48;14.0;;;11.0;;
45382;SDS011;42455;51.660;5.824;2023-02-08T04:07:44;15.0;;;11.0;;
45382;SDS011;42455;51.660;5.824;2023-02-08T04:12:50;13.0;;;11.0;;
45382;SDS011;42455;51.660;5.824;2023-02-08T04:17:57;13.0;;;11.0;;
45382;SDS011;42455;51.660;5.824;2023-02-08T04:23:01;13.5;;;11.0;;
45382;SDS011;42455;51.660;5.824;2023-02-08T04:28:07;14.0;;;11.0;;
45382;SDS011;42455;51.660;5.824;2023-02-08T04:33:13;12.0;;;10.0;;
45382;SDS011;42455;51.660;5.824;2023-02-08T04:38:19;14.0;;;11.0;;
45382;SDS011;42455;51.660;5.824;2023-02-08T04:43:26;14.0;;;11.0;;
45382;SDS011;42455;51.660;5.824;2023-02-08T04:48:32;14.0;;;11.0;;
45382;SDS011;42455;51.660;5.824;2023-02-08T04:53:38;13.0;;;11.0;;
45382;SDS011;42455;51.660;5.824;2023-02-08T04:58:44;13.0;;;10.0;;
45382;SDS011;42455;51.660;5.824;2023-02-08T05:03:51;13.0;;;10.5;;
45382;SDS011;42455;51.660;5.824;2023-02-08T05:08:57;12.0;;;10.0;;
45382;SDS011;42455;51.660;5.824;2023-02-08T05:14:03;14.0;;;11.0;;
45382;SDS011;42455;51.660;5.824;2023-02-08T05:19:09;15.0;;;11.0;;
45382;SDS011;42455;51.660;5.824;2023-02-08T05:24:15;12.0;;;10.0;;
45382;SDS011;42455;51.660;5.824;2023-02-08T05:29:22;13.0;;;11.0;;
45382;SDS011;42455;51.660;5.824;2023-02-08T05:34:28;14.5;;;11.0;;
45382;SDS011;42455;51.660;5.824;2023-02-08T05:39:34;14.0;;;10.0;;
45382;SDS011;42455;51.660;5.824;2023-02-08T05:44:40;12.0;;;10.0;;
45382;SDS011;42455;51.660;5.824;2023-02-08T05:49:46;13.0;;;11.0;;
45382;SDS011;42455;51.660;5.824;2023-02-08T05:54:53;14.0;;;11.0;;
45382;SDS011;42455;51.660;5.824;2023-02-08T05:59:59;13.0;;;11.0;;
45382;SDS011;42455;51.660;5.824;2023-02-08T06:05:05;12.5;;;11.0;;
45382;SDS011;42455;51.660;5.824;2023-02-08T06:10:10;14.5;;;11.0;;
45382;SDS011;42455;51.660;5.824;2023-02-08T06:15:16;13.0;;;11.0;;
45382;SDS011;42455;51.660;5.824;2023-02-08T06:20:23;14.0;;;11.0;;
45382;SDS011;42455;51.660;5.824;2023-02-08T06:25:28;13.0;;;10.0;;
45382;SDS011;42455;51.660;5.824;2023-02-08T06:30:34;14.0;;;11.0;;
45382;SDS011;42455;51.660;5.824;2023-02-08T06:35:42;13.0;;;11.0;;
45382;SDS011;42455;51.660;5.824;2023-02-08T06:40:46;17.0;;;11.0;;
45382;SDS011;42455;51.660;5.824;2023-02-08T06:45:53;14.0;;;11.0;;
45382;SDS011;42455;51.660;5.824;2023-02-08T06:50:59;13.0;;;11.0;;
45382;SDS011;42455;51.660;5.824;2023-02-08T06:56:05;14.0;;;11.0;;
45382;SDS011;42455;51.660;5.824;2023-02-08T07:01:12;14.0;;;11.0;;
45382;SDS011;42455;51.660;5.824;2023-02-08T07:06:19;13.0;;;10.0;;
45382;SDS011;42455;51.660;5.824;2023-02-08T07:11:24;13.0;;;11.0;;
45382;SDS011;42455;51.660;5.824;2023-02-08T07:16:30;13.0;;;11.0;;
45382;SDS011;42455;51.660;5.824;2023-02-08T07:21:36;14.0;;;11.0;;
45382;SDS011;42455;51.660;5.824;2023-02-08T07:26:42;15.0;;;11.0;;
45382;SDS011;42455;51.660;5.824;2023-02-08T07:31:49;14.0;;;11.0;;
45382;SDS011;42455;51.660;5.824;2023-02-08T07:36:55;15.0;;;11.0;;
45382;SDS011;42455;51.660;5.824;2023-02-08T07:42:01;13.0;;;10.0;;
45382;SDS011;42455;51.660;5.824;2023-02-08T07:47:07;14.0;;;11.0;;
45382;SDS011;42455;51.660;5.824;2023-02-08T07:52:13;15.0;;;11.0;;
45382;SDS011;42455;51.660;5.824;2023-02-08T07:57:20;13.5;;;11.0;;
45382;SDS011;42455;51.660;5.824;2023-02-08T08:02:26;14.0;;;12.0;;
45382;SDS011;42455;51.660;5.824;2023-02-08T08:07:32;14.0;;;12.0;;
45382;SDS011;42455;51.660;5.824;2023-02-08T08:12:37;15.0;;;12.0;;
45382;SDS011;42455;51.660;5.824;2023-02-08T08:17:43;15.0;;;13.0;;
45382;SDS011;42455;51.660;5.824;2023-02-08T08:22:49;15.5;;;13.0;;
45382;SDS011;42455;51.660;5.824;2023-02-08T08:27:55;15.0;;;12.0;;
45382;SDS011;42455;51.660;5.824;2023-02-08T08:33:01;15.0;;;12.5;;
45382;SDS011;42455;51.660;5.824;2023-02-08T08:38:07;17.0;;;13.0;;
45382;SDS011;42455;51.660;5.824;2023-02-08T08:43:13;15.0;;;12.0;;
45382;SDS011;42455;51.660;5.824;2023-02-08T08:48:20;14.0;;;12.0;;
45382;SDS011;42455;51.660;5.824;2023-02-08T08:53:26;14.0;;;12.0;;
45382;SDS011;42455;51.660;5.824;2023-02-08T08:58:32;14.0;;;12.0;;
45382;SDS011;42455;51.660;5.824;2023-02-08T09:03:38;14.0;;;12.0;;
45382;SDS011;42455;51.660;5.824;2023-02-08T09:08:45;13.0;;;11.0;;
45382;SDS011;42455;51.660;5.824;2023-02-08T09:13:51;14.0;;;12.0;;
45382;SDS011;42455;51.660;5.824;2023-02-08T09:18:58;15.0;;;12.0;;
45382;SDS011;42455;51.660;5.824;2023-02-08T09:24:03;13.5;;;12.0;;
45382;SDS011;42455;51.660;5.824;2023-02-08T09:29:09;16.0;;;12.0;;
45382;SDS011;42455;51.660;5.824;2023-02-08T09:34:16;13.0;;;11.0;;
45382;SDS011;42455;51.660;5.824;2023-02-08T09:39:24;14.0;;;11.0;;
45382;SDS011;42455;51.660;5.824;2023-02-08T09:45:22;13.0;;;11.0;;
45382;SDS011;42455;51.660;5.824;2023-02-08T09:49:35;14.0;;;12.0;;
45382;SDS011;42455;51.660;5.824;2023-02-08T09:54:55;12.0;;;10.0;;
45382;SDS011;42455;51.660;5.824;2023-02-08T09:59:56;14.0;;;11.0;;
45382;SDS011;42455;51.660;5.824;2023-02-08T10:04:59;13.0;;;11.0;;
45382;SDS011;42455;51.660;5.824;2023-02-08T10:09:59;12.5;;;11.0;;
45382;SDS011;42455;51.660;5.824;2023-02-08T10:16:02;13.0;;;11.0;;
45382;SDS011;42455;51.660;5.824;2023-02-08T10:22:37;11.0;;;10.0;;
45382;SDS011;42455;51.660;5.824;2023-02-08T10:28:29;11.0;;;10.0;;
45382;SDS011;42455;51.660;5.824;2023-02-08T10:34:08;12.0;;;10.0;;
45382;SDS011;42455;51.660;5.824;2023-02-08T10:35:58;10.0;;;9.0;;
45382;SDS011;42455;51.660;5.824;2023-02-08T10:40:40;10.0;;;9.0;;
45382;SDS011;42455;51.660;5.824;2023-02-08T10:45:53;10.0;;;9.0;;
45382;SDS011;42455;51.660;5.824;2023-02-08T10:50:47;9.0;;;8.0;;
45382;SDS011;42455;51.660;5.824;2023-02-08T10:55:53;10.0;;;8.0;;
45382;SDS011;42455;51.660;5.824;2023-02-08T11:00:59;10.0;;;8.0;;
45382;SDS011;42455;51.660;5.824;2023-02-08T11:06:05;9.0;;;8.0;;
45382;SDS011;42455;51.660;5.824;2023-02-08T11:11:12;8.0;;;7.0;;
45382;SDS011;42455;51.660;5.824;2023-02-08T11:16:21;7.0;;;6.0;;
45382;SDS011;42455;51.660;5.824;2023-02-08T11:21:32;9.0;;;7.0;;
45382;SDS011;42455;51.660;5.824;2023-02-08T11:26:34;7.0;;;6.0;;
45382;SDS011;42455;51.660;5.824;2023-02-08T11:31:36;7.0;;;6.0;;
45382;SDS011;42455;51.660;5.824;2023-02-08T11:36:44;7.0;;;6.0;;
45382;SDS011;42455;51.660;5.824;2023-02-08T11:41:50;7.0;;;6.0;;
45382;SDS011;42455;51.660;5.824;2023-02-08T11:46:55;7.0;;;6.0;;
45382;SDS011;42455;51.660;5.824;2023-02-08T11:52:01;7.0;;;6.0;;
45382;SDS011;42455;51.660;5.824;2023-02-08T11:57:15;6.0;;;6.0;;
45382;SDS011;42455;51.660;5.824;2023-02-08T12:02:34;6.0;;;6.0;;
45382;SDS011;42455;51.660;5.824;2023-02-08T12:07:52;6.0;;;6.0;;
45382;SDS011;42455;51.660;5.824;2023-02-08T12:13:19;7.0;;;6.0;;
45382;SDS011;42455;51.660;5.824;2023-02-08T12:19:17;6.0;;;6.0;;
45382;SDS011;42455;51.660;5.824;2023-02-08T12:22:41;6.0;;;6.0;;
45382;SDS011;42455;51.660;5.824;2023-02-08T12:28:28;6.0;;;5.0;;
45382;SDS011;42455;51.660;5.824;2023-02-08T12:33:42;6.0;;;6.0;;
45382;SDS011;42455;51.660;5.824;2023-02-08T12:40:11;8.0;;;6.0;;
45382;SDS011;42455;51.660;5.824;2023-02-08T12:46:05;7.0;;;6.0;;
45382;SDS011;42455;51.660;5.824;2023-02-08T12:51:53;7.0;;;6.0;;
45382;SDS011;42455;51.660;5.824;2023-02-08T12:55:41;7.0;;;5.0;;
45382;SDS011;42455;51.660;5.824;2023-02-08T12:58:29;6.0;;;5.5;;
45382;SDS011;42455;51.660;5.824;2023-02-08T13:03:40;6.0;;;5.0;;
45382;SDS011;42455;51.660;5.824;2023-02-08T13:08:39;6.0;;;5.0;;
45382;SDS011;42455;51.660;5.824;2023-02-08T13:13:40;6.0;;;5.0;;
45382;SDS011;42455;51.660;5.824;2023-02-08T13:18:46;7.0;;;6.0;;
45382;SDS011;42455;51.660;5.824;2023-02-08T13:23:51;6.0;;;6.0;;
45382;SDS011;42455;51.660;5.824;2023-02-08T13:28:58;7.0;;;6.0;;
45382;SDS011;42455;51.660;5.824;2023-02-08T13:34:04;7.0;;;6.0;;
45382;SDS011;42455;51.660;5.824;2023-02-08T13:39:34;6.0;;;6.0;;
45382;SDS011;42455;51.660;5.824;2023-02-08T13:44:17;6.0;;;6.0;;
45382;SDS011;42455;51.660;5.824;2023-02-08T13:49:42;7.0;;;6.0;;
45382;SDS011;42455;51.660;5.824;2023-02-08T13:54:28;7.0;;;6.0;;
45382;SDS011;42455;51.660;5.824;2023-02-08T13:59:35;7.0;;;6.0;;
45382;SDS011;42455;51.660;5.824;2023-02-08T14:04:40;6.0;;;5.0;;
45382;SDS011;42455;51.660;5.824;2023-02-08T14:10:02;6.0;;;6.0;;
45382;SDS011;42455;51.660;5.824;2023-02-08T14:15:22;6.0;;;5.0;;
45382;SDS011;42455;51.660;5.824;2023-02-08T14:20:00;5.0;;;5.0;;
45382;SDS011;42455;51.660;5.824;2023-02-08T14:25:05;6.0;;;5.0;;
45382;SDS011;42455;51.660;5.824;2023-02-08T14:30:19;5.0;;;4.0;;
45382;SDS011;42455;51.660;5.824;2023-02-08T14:30:21;5.0;;;4.0;;
45382;SDS011;42455;51.660;5.824;2023-02-08T14:35:20;5.0;;;4.0;;
45382;SDS011;42455;51.660;5.824;2023-02-08T14:40:48;5.0;;;4.0;;
45382;SDS011;42455;51.660;5.824;2023-02-08T14:45:29;5.0;;;4.0;;
45382;SDS011;42455;51.660;5.824;2023-02-08T14:51:15;5.0;;;4.0;;
45382;SDS011;42455;51.660;5.824;2023-02-08T14:55:47;4.0;;;4.0;;
45382;SDS011;42455;51.660;5.824;2023-02-08T15:00:49;5.0;;;4.0;;
45382;SDS011;42455;51.660;5.824;2023-02-08T15:06:19;5.0;;;4.0;;
45382;SDS011;42455;51.660;5.824;2023-02-08T15:10:59;5.0;;;4.0;;
45382;SDS011;42455;51.660;5.824;2023-02-08T15:16:10;4.0;;;4.0;;
45382;SDS011;42455;51.660;5.824;2023-02-08T15:21:16;6.0;;;4.0;;
45382;SDS011;42455;51.660;5.824;2023-02-08T15:26:22;6.0;;;4.0;;
45382;SDS011;42455;51.660;5.824;2023-02-08T15:31:25;5.0;;;4.0;;
45382;SDS011;42455;51.660;5.824;2023-02-08T15:36:31;5.0;;;4.0;;
45382;SDS011;42455;51.660;5.824;2023-02-08T15:41:37;6.0;;;4.0;;
45382;SDS011;42455;51.660;5.824;2023-02-08T15:46:43;6.0;;;4.0;;
45382;SDS011;42455;51.660;5.824;2023-02-08T15:51:49;4.0;;;4.0;;
45382;SDS011;42455;51.660;5.824;2023-02-08T15:56:58;4.0;;;4.0;;
45382;SDS011;42455;51.660;5.824;2023-02-08T16:02:20;4.0;;;4.0;;
45382;SDS011;42455;51.660;5.824;2023-02-08T16:07:12;5.0;;;4.0;;
45382;SDS011;42455;51.660;5.824;2023-02-08T16:12:15;5.5;;;4.0;;
45382;SDS011;42455;51.660;5.824;2023-02-08T16:17:30;5.0;;;4.0;;
45382;SDS011;42455;51.660;5.824;2023-02-08T16:22:29;4.0;;;4.0;;
45382;SDS011;42455;51.660;5.824;2023-02-08T16:27:31;4.0;;;4.0;;
45382;SDS011;42455;51.660;5.824;2023-02-08T16:32:37;4.0;;;3.0;;
45382;SDS011;42455;51.660;5.824;2023-02-08T16:37:43;4.0;;;3.0;;
45382;SDS011;42455;51.660;5.824;2023-02-08T16:42:49;4.0;;;3.5;;
45382;SDS011;42455;51.660;5.824;2023-02-08T16:47:55;4.5;;;3.5;;
45382;SDS011;42455;51.660;5.824;2023-02-08T16:53:02;4.0;;;4.0;;
45382;SDS011;42455;51.660;5.824;2023-02-08T16:58:11;5.0;;;3.0;;
45382;SDS011;42455;51.660;5.824;2023-02-08T17:03:14;5.0;;;3.0;;
45382;SDS011;42455;51.660;5.824;2023-02-08T17:08:20;4.0;;;3.0;;
45382;SDS011;42455;51.660;5.824;2023-02-08T17:13:26;7.0;;;6.0;;
45382;SDS011;42455;51.660;5.824;2023-02-08T17:18:33;6.0;;;5.0;;
45382;SDS011;42455;51.660;5.824;2023-02-08T17:23:39;6.0;;;4.0;;
45382;SDS011;42455;51.660;5.824;2023-02-08T17:28:45;5.0;;;4.0;;
45382;SDS011;42455;51.660;5.824;2023-02-08T17:33:51;5.0;;;4.0;;
45382;SDS011;42455;51.660;5.824;2023-02-08T17:38:58;6.0;;;4.0;;
45382;SDS011;42455;51.660;5.824;2023-02-08T17:44:04;6.0;;;5.0;;
45382;SDS011;42455;51.660;5.824;2023-02-08T17:49:10;5.0;;;4.0;;
45382;SDS011;42455;51.660;5.824;2023-02-08T17:54:16;5.0;;;4.0;;
45382;SDS011;42455;51.660;5.824;2023-02-08T17:59:21;4.5;;;4.0;;
45382;SDS011;42455;51.660;5.824;2023-02-08T18:04:28;4.0;;;4.0;;
45382;SDS011;42455;51.660;5.824;2023-02-08T18:09:33;5.0;;;4.0;;
45382;SDS011;42455;51.660;5.824;2023-02-08T18:14:39;5.0;;;4.0;;
45382;SDS011;42455;51.660;5.824;2023-02-08T18:19:44;5.0;;;4.0;;
45382;SDS011;42455;51.660;5.824;2023-02-08T18:24:50;5.0;;;4.0;;
45382;SDS011;42455;51.660;5.824;2023-02-08T18:29:57;5.0;;;4.0;;
45382;SDS011;42455;51.660;5.824;2023-02-08T18:35:03;4.0;;;4.0;;
45382;SDS011;42455;51.660;5.824;2023-02-08T18:40:09;5.0;;;4.0;;
45382;SDS011;42455;51.660;5.824;2023-02-08T18:45:15;5.0;;;4.0;;
45382;SDS011;42455;51.660;5.824;2023-02-08T18:50:21;5.0;;;4.0;;
45382;SDS011;42455;51.660;5.824;2023-02-08T18:55:28;5.0;;;4.0;;
45382;SDS011;42455;51.660;5.824;2023-02-08T19:00:34;6.0;;;4.0;;
45382;SDS011;42455;51.660;5.824;2023-02-08T19:05:40;5.0;;;5.0;;
45382;SDS011;42455;51.660;5.824;2023-02-08T19:10:46;6.0;;;5.0;;
45382;SDS011;42455;51.660;5.824;2023-02-08T19:15:52;6.0;;;5.0;;
45382;SDS011;42455;51.660;5.824;2023-02-08T19:21:01;9.0;;;7.0;;
45382;SDS011;42455;51.660;5.824;2023-02-08T19:26:06;10.0;;;7.0;;
45382;SDS011;42455;51.660;5.824;2023-02-08T19:31:18;7.0;;;5.0;;
45382;SDS011;42455;51.660;5.824;2023-02-08T19:36:18;5.0;;;4.0;;
45382;SDS011;42455;51.660;5.824;2023-02-08T19:41:25;7.0;;;5.0;;
45382;SDS011;42455;51.660;5.824;2023-02-08T19:46:31;7.0;;;5.0;;
45382;SDS011;42455;51.660;5.824;2023-02-08T19:51:36;7.0;;;5.0;;
45382;SDS011;42455;51.660;5.824;2023-02-08T19:56:41;7.0;;;6.0;;
45382;SDS011;42455;51.660;5.824;2023-02-08T20:01:48;7.0;;;6.0;;
45382;SDS011;42455;51.660;5.824;2023-02-08T20:06:53;7.0;;;5.5;;
45382;SDS011;42455;51.660;5.824;2023-02-08T20:11:59;8.0;;;6.0;;
45382;SDS011;42455;51.660;5.824;2023-02-08T20:17:05;8.0;;;6.0;;
45382;SDS011;42455;51.660;5.824;2023-02-08T20:22:11;8.0;;;6.0;;
45382;SDS011;42455;51.660;5.824;2023-02-08T20:27:17;9.0;;;6.0;;
45382;SDS011;42455;51.660;5.824;2023-02-08T20:32:24;7.0;;;6.0;;
45382;SDS011;42455;51.660;5.824;2023-02-08T20:37:30;7.5;;;6.0;;
45382;SDS011;42455;51.660;5.824;2023-02-08T20:42:36;8.0;;;6.0;;
45382;SDS011;42455;51.660;5.824;2023-02-08T20:47:42;9.0;;;7.0;;
45382;SDS011;42455;51.660;5.824;2023-02-08T20:52:48;7.0;;;6.0;;
45382;SDS011;42455;51.660;5.824;2023-02-08T20:57:55;8.0;;;6.0;;
45382;SDS011;42455;51.660;5.824;2023-02-08T21:03:01;8.0;;;6.0;;
45382;SDS011;42455;51.660;5.824;2023-02-08T21:08:07;7.0;;;6.0;;
45382;SDS011;42455;51.660;5.824;2023-02-08T21:18:20;7.0;;;6.0;;
45382;SDS011;42455;51.660;5.824;2023-02-08T21:23:26;8.5;;;6.0;;
45382;SDS011;42455;51.660;5.824;2023-02-08T21:28:32;8.0;;;7.0;;
45382;SDS011;42455;51.660;5.824;2023-02-08T21:33:38;9.0;;;7.0;;
45382;SDS011;42455;51.660;5.824;2023-02-08T21:38:44;8.0;;;7.0;;
45382;SDS011;42455;51.660;5.824;2023-02-08T21:43:51;9.0;;;7.0;;
45382;SDS011;42455;51.660;5.824;2023-02-08T21:48:57;10.0;;;7.0;;
45382;SDS011;42455;51.660;5.824;2023-02-08T21:54:03;8.5;;;7.0;;
45382;SDS011;42455;51.660;5.824;2023-02-08T21:59:08;8.0;;;6.0;;
45382;SDS011;42455;51.660;5.824;2023-02-08T22:04:14;7.0;;;6.0;;
45382;SDS011;42455;51.660;5.824;2023-02-08T22:09:20;9.0;;;7.0;;
45382;SDS011;42455;51.660;5.824;2023-02-08T22:14:26;8.0;;;7.0;;
45382;SDS011;42455;51.660;5.824;2023-02-08T22:19:32;9.0;;;7.0;;
45382;SDS011;42455;51.660;5.824;2023-02-08T22:24:38;8.0;;;7.0;;
45382;SDS011;42455;51.660;5.824;2023-02-08T22:29:45;8.0;;;6.0;;
45382;SDS011;42455;51.660;5.824;2023-02-08T22:34:51;8.0;;;6.0;;
45382;SDS011;42455;51.660;5.824;2023-02-08T22:39:57;8.0;;;6.0;;
45382;SDS011;42455;51.660;5.824;2023-02-08T22:45:03;9.0;;;7.0;;
45382;SDS011;42455;51.660;5.824;2023-02-08T22:50:09;8.0;;;6.0;;
45382;SDS011;42455;51.660;5.824;2023-02-08T22:55:16;8.0;;;7.0;;
45382;SDS011;42455;51.660;5.824;2023-02-08T23:00:22;9.0;;;6.0;;
45382;SDS011;42455;51.660;5.824;2023-02-08T23:05:28;8.0;;;6.0;;
45382;SDS011;42455;51.660;5.824;2023-02-08T23:10:34;8.0;;;7.0;;
45382;SDS011;42455;51.660;5.824;2023-02-08T23:15:41;9.0;;;8.0;;
45382;SDS011;42455;51.660;5.824;2023-02-08T23:20:47;9.0;;;8.0;;
45382;SDS011;42455;51.660;5.824;2023-02-08T23:25:53;8.0;;;7.0;;
45382;SDS011;42455;51.660;5.824;2023-02-08T23:30:59;8.0;;;6.5;;
45382;SDS011;42455;51.660;5.824;2023-02-08T23:36:06;8.0;;;6.0;;
45382;SDS011;42455;51.660;5.824;2023-02-08T23:41:15;9.0;;;7.0;;
45382;SDS011;42455;51.660;5.824;2023-02-08T23:46:21;8.0;;;6.0;;
45382;SDS011;42455;51.660;5.824;2023-02-08T23:51:24;9.0;;;6.0;;
45382;SDS011;42455;51.660;5.824;2023-02-08T23:56:29;9.0;;;6.0;;
